Time;durP1;ratioP1;P1;durP2;ratioP2;P2;SDS_P1;SDS_P2;PMS_P1;PMS_P2;Temp;Humidity;BMP_temperature;BMP_pressure;BME280_temperature;BME280_humidity;BME280_pressure;Samples;Min_cycle;Max_cycle;Signal;HPM_P1;HPM_P2
2023/09/19 00:00:48;;;;;;;11.02;6.25;;;;;;;;;;4399217;32;60615;-64
2023/09/19 00:03:38;;;;;;;10.23;6.20;;;;;;;;;;4400489;32;69748;-64
2023/09/19 00:06:18;;;;;;;12.55;7.28;;;;;;;;;;3868900;36;43912;-64
2023/09/19 00:09:10;;;;;;;11.80;6.80;;;;;;;;;;4414746;32;60072;-65
2023/09/19 00:11:56;;;;;;;11.07;7.07;;;;;;;;;;4393274;32;69426;-65
2023/09/19 00:14:43;;;;;;;;;;;;;;;;;;4401262;32;70826;-64
2023/09/19 00:17:31;;;;;;;10.80;7.05;;;;;;;;;;4390112;32;67889;-65
2023/09/19 00:20:18;;;;;;;12.43;6.25;;;;;;;;;;4403478;32;71727;-65
2023/09/19 00:23:05;;;;;;;14.68;7.55;;;;;;;;;;4400824;32;66036;-65
2023/09/19 00:25:58;;;;;;;10.63;6.03;;;;;;;;;;4378559;32;68478;-64
2023/09/19 00:28:45;;;;;;;9.25;5.50;;;;;;;;;;4403512;32;60006;-65
2023/09/19 00:31:37;;;;;;;8.82;5.47;;;;;;;;;;4414046;32;72050;-64
2023/09/19 00:34:23;;;;;;;8.93;5.72;;;;;;;;;;4392728;32;66305;-66
2023/09/19 00:37:11;;;;;;;;;;;;;;;;;;4411842;32;67329;-65
2023/09/19 00:39:58;;;;;;;;;;;;;;;;;;4414726;32;59348;-64
2023/09/19 00:42:46;;;;;;;10.75;5.75;;;;;;;;;;4400582;32;71051;-65
2023/09/19 00:45:32;;;;;;;9.48;5.22;;;;;;;;;;4402885;32;68458;-64
2023/09/19 00:48:21;;;;;;;10.45;6.07;;;;;;;;;;4389850;32;69973;-64
2023/09/19 00:51:08;;;;;;;7.97;5.28;;;;;;;;;;4403159;32;72074;-63
2023/09/19 00:53:55;;;;;;;8.80;6.00;;;;;;;;;;4415354;32;66018;-64
2023/09/19 00:56:42;;;;;;;;;;;;;;;;;;4426664;32;68316;-65
2023/09/19 00:59:30;;;;;;;10.02;5.78;;;;;;;;;;4403232;32;67097;-65
2023/09/19 01:02:17;;;;;;;9.43;6.00;;;;;;;;;;4389703;32;72908;-65
2023/09/19 01:05:05;;;;;;;8.40;5.65;;;;;;;;;;4388775;32;67588;-64
2023/09/19 01:07:53;;;;;;;9.60;5.32;;;;;;;;;;4378806;32;67611;-65
2023/09/19 01:10:55;;;;;;;9.75;5.57;;;;;;;;;;4410326;32;60607;-64
2023/09/19 01:13:48;;;;;;;8.25;5.50;;;;;;;;;;4402837;32;69234;-65
2023/09/19 01:17:00;;;;;;;9.18;6.00;;;;;;;;;;4407668;32;69601;-64
2023/09/19 01:20:16;;;;;;;10.93;5.65;;;;;;;;;;4392594;32;67761;-64
2023/09/19 01:23:40;;;;;;;12.02;5.93;;;;;;;;;;4415788;32;58950;-64
2023/09/19 01:27:06;;;;;;;12.65;6.85;;;;;;;;;;4415093;32;70560;-64
2023/09/19 01:29:54;;;;;;;11.93;6.57;;;;;;;;;;4392434;32;68301;-64
2023/09/19 01:32:41;;;;;;;14.00;6.85;;;;;;;;;;4381693;32;66871;-64
2023/09/19 01:35:27;;;;;;;10.10;6.85;;;;;;;;;;4403192;32;70725;-65
2023/09/19 01:38:14;;;;;;;10.20;6.00;;;;;;;;;;4400287;32;67100;-64
2023/09/19 01:41:12;;;;;;;11.30;6.35;;;;;;;;;;4378939;32;68604;-64
2023/09/19 01:44:01;;;;;;;9.50;6.22;;;;;;;;;;4381738;32;60437;-65
2023/09/19 01:46:48;;;;;;;10.52;6.55;;;;;;;;;;4399840;32;71078;-64
2023/09/19 01:49:59;;;;;;;12.35;6.57;;;;;;;;;;4392140;32;64803;-64
2023/09/19 01:53:05;;;;;;;9.30;5.50;;;;;;;;;;4402606;32;67301;-64
2023/09/19 01:55:52;;;;;;;13.68;6.32;;;;;;;;;;4414867;32;59801;-64
2023/09/19 01:58:46;;;;;;;9.95;6.03;;;;;;;;;;4381381;32;70590;-65
2023/09/19 02:01:33;;;;;;;16.10;7.05;;;;;;;;;;4391942;32;68192;-64
2023/09/19 02:04:20;;;;;;;11.50;6.22;;;;;;;;;;4378171;32;67172;-64
2023/09/19 02:07:08;;;;;;;11.82;6.15;;;;;;;;;;4367756;32;72598;-64
2023/09/19 02:10:05;;;;;;;10.13;5.97;;;;;;;;;;4391989;32;64934;-64
2023/09/19 02:15:07;;;;;;;8.57;5.53;;;;;;;;;;3847402;37;43092;-64
2023/09/19 02:17:56;;;;;;;10.90;6.10;;;;;;;;;;4411412;32;60055;-65
2023/09/19 02:20:46;;;;;;;8.40;5.35;;;;;;;;;;4388307;32;70264;-64
2023/09/19 02:23:34;;;;;;;10.32;6.22;;;;;;;;;;4388395;32;69265;-64
2023/09/19 02:26:41;;;;;;;16.40;7.30;;;;;;;;;;3847495;37;43963;-65
2023/09/19 02:29:29;;;;;;;11.95;7.10;;;;;;;;;;4409515;32;61799;-64
2023/09/19 02:32:18;;;;;;;12.40;7.07;;;;;;;;;;4410263;32;70198;-66
2023/09/19 02:35:05;;;;;;;9.57;6.05;;;;;;;;;;4387969;32;70554;-64
2023/09/19 02:37:52;;;;;;;10.30;6.47;;;;;;;;;;4389416;32;67963;-64
2023/09/19 02:40:56;;;;;;;10.85;6.47;;;;;;;;;;3848720;37;43898;-64
2023/09/19 02:43:43;;;;;;;10.68;6.57;;;;;;;;;;4400482;32;60149;-64
2023/09/19 02:46:30;;;;;;;10.35;6.47;;;;;;;;;;4398791;32;71810;-65
2023/09/19 02:49:17;;;;;;;10.02;5.35;;;;;;;;;;4387561;32;70360;-65
2023/09/19 02:52:04;;;;;;;17.77;6.37;;;;;;;;;;4398979;32;67876;-64
2023/09/19 02:54:51;;;;;;;13.30;7.12;;;;;;;;;;4387600;32;70769;-65
2023/09/19 02:57:40;;;;;;;10.32;5.55;;;;;;;;;;4409791;32;65928;-64
2023/09/19 03:00:27;;;;;;;11.43;5.95;;;;;;;;;;4387729;32;67808;-65
2023/09/19 03:03:16;;;;;;;;;;;;;;;;;;4399375;32;60536;-65
2023/09/19 03:06:04;;;;;;;9.63;5.05;;;;;;;;;;4410931;32;70993;-65
2023/09/19 03:08:51;;;;;;;8.75;5.60;;;;;;;;;;4398584;32;65949;-64
2023/09/19 03:11:37;;;;;;;8.40;5.10;;;;;;;;;;3849298;37;43864;-63
2023/09/19 03:14:24;;;;;;;8.15;5.50;;;;;;;;;;4410330;32;59239;-64
2023/09/19 03:17:11;;;;;;;;;;;;;;;;;;4388080;32;70869;-64
2023/09/19 03:19:58;;;;;;;8.73;5.43;;;;;;;;;;4387555;32;71957;-65
2023/09/19 03:22:46;;;;;;;9.15;4.45;;;;;;;;;;4398233;32;67938;-64
2023/09/19 03:25:35;;;;;;;7.68;4.72;;;;;;;;;;4388078;32;71765;-65
2023/09/19 03:28:23;;;;;;;8.75;5.65;;;;;;;;;;4398193;32;63554;-65
2023/09/19 03:31:10;;;;;;;7.20;4.95;;;;;;;;;;4398873;32;67286;-64
2023/09/19 03:33:57;;;;;;;10.57;5.10;;;;;;;;;;4398492;32;61440;-63
2023/09/19 03:36:44;;;;;;;6.85;4.25;;;;;;;;;;4409394;32;71652;-64
2023/09/19 03:39:31;;;;;;;;;;;;;;;;;;4388431;32;66102;-65
2023/09/19 03:42:25;;;;;;;9.80;4.85;;;;;;;;;;4398308;32;67485;-65
2023/09/19 03:45:12;;;;;;;7.00;4.07;;;;;;;;;;4399584;32;60409;-65
2023/09/19 03:47:59;;;;;;;9.95;5.10;;;;;;;;;;4383238;32;70498;-64
2023/09/19 03:50:46;;;;;;;;;;;;;;;;;;4395630;32;69496;-65
2023/09/19 03:53:32;;;;;;;8.65;3.92;;;;;;;;;;4394286;32;67722;-65
2023/09/19 03:59:02;;;;;;;8.02;4.72;;;;;;;;;;3847445;37;43599;-66
2023/09/19 04:01:50;;;;;;;6.78;4.78;;;;;;;;;;4398685;32;57474;-65
2023/09/19 04:04:37;;;;;;;8.57;5.50;;;;;;;;;;4398985;32;69556;-65
2023/09/19 04:07:25;;;;;;;;;;;;;;;;;;4410186;32;69272;-64
2023/09/19 04:10:14;;;;;;;10.77;5.43;;;;;;;;;;4409788;32;67584;-64
2023/09/19 04:13:00;;;;;;;6.62;4.15;;;;;;;;;;4398925;32;71800;-65
2023/09/19 04:15:48;;;;;;;5.03;3.30;;;;;;;;;;4388576;32;65936;-64
2023/09/19 04:18:37;;;;;;;8.85;4.65;;;;;;;;;;4387426;32;66602;-65
2023/09/19 04:21:24;;;;;;;9.23;4.65;;;;;;;;;;4398288;32;59945;-65
2023/09/19 04:24:10;;;;;;;10.05;5.80;;;;;;;;;;4388935;32;72197;-64
2023/09/19 04:27:14;;;;;;;11.12;6.00;;;;;;;;;;3869442;36;43757;-64
2023/09/19 04:30:04;;;;;;;8.75;4.45;;;;;;;;;;4390364;32;60081;-64
2023/09/19 04:32:50;;;;;;;8.55;5.25;;;;;;;;;;4400951;32;71713;-65
2023/09/19 04:35:38;;;;;;;;;;;;;;;;;;4379772;32;68399;-65
2023/09/19 04:38:29;;;;;;;8.45;4.70;;;;;;;;;;4390838;32;67655;-65
2023/09/19 04:41:16;;;;;;;9.15;4.07;;;;;;;;;;4400566;32;70461;-65
2023/09/19 04:44:03;;;;;;;8.45;4.43;;;;;;;;;;4389653;32;67152;-65
2023/09/19 04:46:50;;;;;;;10.68;4.60;;;;;;;;;;4398730;32;66509;-65
2023/09/19 04:49:37;;;;;;;7.55;4.12;;;;;;;;;;4375078;32;61459;-65
2023/09/19 04:52:23;;;;;;;8.95;5.85;;;;;;;;;;4374478;32;71745;-64
2023/09/19 04:55:16;;;;;;;8.07;5.25;;;;;;;;;;4410680;32;64985;-64
2023/09/19 04:58:03;;;;;;;8.95;5.25;;;;;;;;;;4398612;32;67888;-64
2023/09/19 05:00:51;;;;;;;8.93;5.40;;;;;;;;;;4385438;32;57422;-65
2023/09/19 05:03:38;;;;;;;9.98;4.60;;;;;;;;;;4385132;32;70895;-65
2023/09/19 05:06:26;;;;;;;7.45;4.60;;;;;;;;;;4384550;32;69814;-64
2023/09/19 05:09:13;;;;;;;8.20;4.93;;;;;;;;;;4398775;32;66683;-65
2023/09/19 05:11:59;;;;;;;7.30;4.70;;;;;;;;;;4398208;32;70733;-65
2023/09/19 05:14:46;;;;;;;7.72;4.80;;;;;;;;;;4374777;32;66378;-64
2023/09/19 05:20:17;;;;;;;9.55;4.75;;;;;;;;;;3847209;37;44004;-65
2023/09/19 05:23:11;;;;;;;10.25;5.57;;;;;;;;;;4399180;32;60746;-64
2023/09/19 05:25:59;;;;;;;6.82;4.43;;;;;;;;;;4377641;32;71354;-65
2023/09/19 05:28:50;;;;;;;9.15;5.53;;;;;;;;;;4387758;32;69779;-65
2023/09/19 05:31:40;;;;;;;7.85;4.93;;;;;;;;;;4409516;32;67802;-63
2023/09/19 05:34:30;;;;;;;6.50;3.62;;;;;;;;;;4399014;32;70800;-66
2023/09/19 05:37:16;;;;;;;5.70;3.45;;;;;;;;;;4377228;32;66819;-65
2023/09/19 05:40:07;;;;;;;5.40;3.17;;;;;;;;;;4410774;32;67281;-65
2023/09/19 05:42:53;;;;;;;6.70;4.68;;;;;;;;;;4409724;32;60199;-65
2023/09/19 05:45:40;;;;;;;8.30;4.47;;;;;;;;;;4398509;32;71246;-64
2023/09/19 05:48:27;;;;;;;7.45;4.15;;;;;;;;;;4398022;32;67554;-64
2023/09/19 05:51:14;;;;;;;8.52;4.60;;;;;;;;;;4398595;32;67656;-64
2023/09/19 05:54:01;;;;;;;;;;;;;;;;;;4411390;32;59083;-64
2023/09/19 05:56:47;;;;;;;7.35;4.30;;;;;;;;;;4398684;32;70230;-65
2023/09/19 05:59:34;;;;;;;7.40;4.10;;;;;;;;;;4398245;32;68998;-64
2023/09/19 06:02:20;;;;;;;5.30;3.80;;;;;;;;;;4387706;32;67679;-64
2023/09/19 06:05:10;;;;;;;7.40;3.53;;;;;;;;;;4386967;32;72523;-63
2023/09/19 06:07:59;;;;;;;6.18;4.12;;;;;;;;;;4397759;32;65748;-65
2023/09/19 06:10:48;;;;;;;7.68;3.70;;;;;;;;;;4409161;32;69340;-65
2023/09/19 06:13:39;;;;;;;5.57;4.10;;;;;;;;;;4388941;32;65927;-65
2023/09/19 06:16:31;;;;;;;5.53;3.67;;;;;;;;;;4388422;32;71736;-65
2023/09/19 06:19:18;;;;;;;6.15;4.32;;;;;;;;;;4386996;32;65302;-63
2023/09/19 06:22:05;;;;;;;6.90;4.60;;;;;;;;;;4387709;32;67711;-64
2023/09/19 06:24:51;;;;;;;8.32;4.25;;;;;;;;;;4387339;32;61319;-64
2023/09/19 06:27:44;;;;;;;;;;;;;;;;;;4408788;32;70816;-64
2023/09/19 06:30:34;;;;;;;7.80;3.87;;;;;;;;;;4381537;32;68842;-65
2023/09/19 06:33:21;;;;;;;6.22;3.87;;;;;;;;;;4387607;32;67953;-64
2023/09/19 06:36:08;;;;;;;6.60;4.05;;;;;;;;;;4377707;32;60191;-64
2023/09/19 06:38:55;;;;;;;7.30;3.70;;;;;;;;;;4387121;32;71759;-65
2023/09/19 06:41:41;;;;;;;;;;;;;;;;;;4388279;32;68088;-63
2023/09/19 06:44:31;;;;;;;8.30;3.72;;;;;;;;;;4376909;32;69014;-64
2023/09/19 06:47:18;;;;;;;8.00;3.97;;;;;;;;;;4387697;32;72024;-66
2023/09/19 06:50:05;;;;;;;;;;;;;;;;;;4388093;32;66192;-65
2023/09/19 06:52:53;;;;;;;4.60;3.20;;;;;;;;;;4399846;32;66953;-65
2023/09/19 06:55:40;;;;;;;5.57;3.10;;;;;;;;;;4398612;32;59021;-66
2023/09/19 06:58:27;;;;;;;;;;;;;;;;;;4376629;32;71777;-64
2023/09/19 07:01:18;;;;;;;6.22;3.60;;;;;;;;;;4398134;32;67475;-64
2023/09/19 07:04:05;;;;;;;7.93;4.00;;;;;;;;;;3847198;37;43817;-64
2023/09/19 07:06:52;;;;;;;5.12;2.97;;;;;;;;;;4388551;32;60885;-65
2023/09/19 07:09:38;;;;;;;5.00;3.50;;;;;;;;;;4377398;32;71422;-63
2023/09/19 07:12:25;;;;;;;;;;;;;;;;;;4377872;32;69820;-64
2023/09/19 07:15:11;;;;;;;6.03;3.53;;;;;;;;;;4388066;32;68547;-64
2023/09/19 07:17:58;;;;;;;4.62;2.97;;;;;;;;;;4409694;32;70780;-65
2023/09/19 07:20:49;;;;;;;4.80;2.62;;;;;;;;;;4399129;32;65899;-63
2023/09/19 07:23:35;;;;;;;3.90;2.70;;;;;;;;;;4399199;32;67295;-64
2023/09/19 07:26:22;;;;;;;;;;;;;;;;;;4410307;32;59944;-64
2023/09/19 07:29:09;;;;;;;4.45;3.00;;;;;;;;;;4398339;32;72420;-65
2023/09/19 07:31:55;;;;;;;3.25;2.83;;;;;;;;;;4398823;32;66364;-65
2023/09/19 07:34:44;;;;;;;3.72;2.35;;;;;;;;;;4408873;32;68567;-64
2023/09/19 07:37:33;;;;;;;6.05;2.65;;;;;;;;;;4399033;32;60260;-65
2023/09/19 07:40:24;;;;;;;4.03;2.60;;;;;;;;;;4398803;32;69518;-64
2023/09/19 07:43:10;;;;;;;4.28;2.62;;;;;;;;;;4388225;32;68358;-64
2023/09/19 07:46:00;;;;;;;5.53;2.95;;;;;;;;;;4387843;32;69049;-64
2023/09/19 07:48:48;;;;;;;5.20;3.05;;;;;;;;;;4398808;32;72133;-63
2023/09/19 07:51:35;;;;;;;6.07;3.00;;;;;;;;;;4387984;32;67585;-65
2023/09/19 07:54:22;;;;;;;;;;;;;;;;;;4410318;32;68384;-65
2023/09/19 07:57:09;;;;;;;4.45;3.00;;;;;;;;;;4389483;32;68106;-64
2023/09/19 07:59:57;;;;;;;6.57;2.85;;;;;;;;;;4400226;32;72510;-63
2023/09/19 08:02:44;;;;;;;4.15;2.70;;;;;;;;;;4413201;32;66053;-64
2023/09/19 08:05:30;;;;;;;5.07;2.78;;;;;;;;;;4410190;32;68630;-64
2023/09/19 08:08:17;;;;;;;9.60;3.33;;;;;;;;;;4410322;32;60400;-64
2023/09/19 08:11:11;;;;;;;3.42;2.42;;;;;;;;;;4410042;32;70363;-64
2023/09/19 08:13:58;;;;;;;4.90;2.85;;;;;;;;;;4372984;32;70583;-65
2023/09/19 08:16:45;;;;;;;4.15;2.75;;;;;;;;;;4388435;32;67001;-64
2023/09/19 08:19:32;;;;;;;3.83;2.50;;;;;;;;;;4376680;32;59689;-64
2023/09/19 08:22:21;;;;;;;4.72;3.03;;;;;;;;;;4399927;32;70652;-64
2023/09/19 08:25:08;;;;;;;3.70;2.70;;;;;;;;;;4387536;32;71462;-65
2023/09/19 08:27:57;;;;;;;;;;;;;;;;;;4387736;32;68298;-65
2023/09/19 08:30:45;;;;;;;3.47;2.60;;;;;;;;;;4376833;32;73011;-64
2023/09/19 08:33:52;;;;;;;5.90;2.87;;;;;;;;;;3847277;37;43117;-64
2023/09/19 08:36:41;;;;;;;4.57;2.87;;;;;;;;;;4387534;32;60020;-65
2023/09/19 08:39:30;;;;;;;3.87;2.42;;;;;;;;;;4398092;32;71236;-65
2023/09/19 08:42:19;;;;;;;6.45;2.80;;;;;;;;;;4399209;32;69749;-65
2023/09/19 08:45:06;;;;;;;2.72;2.17;;;;;;;;;;4399038;32;67834;-65
2023/09/19 08:48:15;;;;;;;3.25;2.45;;;;;;;;;;4397916;32;73036;-63
2023/09/19 08:51:06;;;;;;;4.80;2.62;;;;;;;;;;4410806;32;65141;-64
2023/09/19 08:54:13;;;;;;;2.95;2.33;;;;;;;;;;4387969;32;67823;-65
2023/09/19 08:57:03;;;;;;;3.62;2.67;;;;;;;;;;4409553;32;60107;-64
2023/09/19 08:59:50;;;;;;;5.12;2.33;;;;;;;;;;4397816;32;73157;-65
2023/09/19 09:02:41;;;;;;;4.97;2.70;;;;;;;;;;4409484;32;64761;-64
2023/09/19 09:05:29;;;;;;;3.78;2.40;;;;;;;;;;4379149;32;68235;-65
2023/09/19 09:08:17;;;;;;;4.30;2.90;;;;;;;;;;4400364;32;59322;-63
2023/09/19 09:11:07;;;;;;;3.37;2.10;;;;;;;;;;4387459;32;72102;-65
2023/09/19 09:13:54;;;;;;;2.87;2.00;;;;;;;;;;4387514;32;70468;-64
2023/09/19 09:16:40;;;;;;;;;;;;;;;;;;4411087;32;66759;-64
2023/09/19 09:19:27;;;;;;;3.60;2.60;;;;;;;;;;4387943;32;71687;-65
2023/09/19 09:22:13;;;;;;;3.65;2.58;;;;;;;;;;4410832;32;65628;-64
2023/09/19 09:25:04;;;;;;;4.60;2.53;;;;;;;;;;4387153;32;68915;-64
2023/09/19 09:28:01;;;;;;;3.00;2.40;;;;;;;;;;4408944;32;66785;-65
2023/09/19 09:30:48;;;;;;;3.17;2.15;;;;;;;;;;4397259;32;73361;-65
2023/09/19 09:33:36;;;;;;;4.53;3.08;;;;;;;;;;4376020;32;67421;-64
2023/09/19 09:36:46;;;;;;;3.67;2.90;;;;;;;;;;4398197;32;67711;-66
2023/09/19 09:39:34;;;;;;;3.45;2.28;;;;;;;;;;4409098;32;60166;-64
2023/09/19 09:42:41;;;;;;;3.60;2.50;;;;;;;;;;4388740;32;70545;-65
2023/09/19 09:48:31;;;;;;;3.40;2.12;;;;;;;;;;4387997;32;68921;-64
2023/09/19 09:51:30;;;;;;;3.58;2.37;;;;;;;;;;4366913;32;60321;-65
2023/09/19 09:54:20;;;;;;;5.28;2.30;;;;;;;;;;4376699;32;70675;-64
2023/09/19 09:57:20;;;;;;;4.28;2.10;;;;;;;;;;4376637;32;70683;-64
2023/09/19 10:03:00;;;;;;;3.60;2.20;;;;;;;;;;4377113;32;70253;-64
2023/09/19 10:05:47;;;;;;;2.92;2.40;;;;;;;;;;4365698;32;67693;-63
2023/09/19 10:08:36;;;;;;;3.85;2.20;;;;;;;;;;4387745;32;67640;-64
2023/09/19 10:11:30;;;;;;;2.25;1.75;;;;;;;;;;4390539;32;60182;-65
2023/09/19 10:14:19;;;;;;;2.62;1.77;;;;;;;;;;4401032;32;69022;-64
2023/09/19 10:17:08;;;;;;;2.35;1.87;;;;;;;;;;4379076;32;66029;-64
2023/09/19 10:19:58;;;;;;;3.97;2.05;;;;;;;;;;4391344;32;67276;-62
2023/09/19 10:23:12;;;;;;;2.72;1.90;;;;;;;;;;4380377;32;59386;-64
2023/09/19 10:26:02;;;;;;;3.17;2.10;;;;;;;;;;4377093;32;69818;-63
2023/09/19 10:28:51;;;;;;;2.42;1.87;;;;;;;;;;4387924;32;69344;-64
2023/09/19 10:31:41;;;;;;;3.95;2.00;;;;;;;;;;4397798;32;67963;-65
2023/09/19 10:34:27;;;;;;;2.87;1.92;;;;;;;;;;4397885;32;70588;-65
2023/09/19 10:37:16;;;;;;;4.82;1.90;;;;;;;;;;4365719;32;64085;-64
2023/09/19 10:40:08;;;;;;;3.80;2.10;;;;;;;;;;4387592;32;66446;-64
2023/09/19 10:42:55;;;;;;;3.62;2.05;;;;;;;;;;4376791;32;66726;-64
2023/09/19 10:45:41;;;;;;;;;;;;;;;;;;4398173;32;71747;-65
2023/09/19 10:48:28;;;;;;;2.62;1.70;;;;;;;;;;4376669;32;65095;-64
2023/09/19 10:51:15;;;;;;;;;;;;;;;;;;4376327;32;66461;-63
2023/09/19 10:54:13;;;;;;;;;;;;;;;;;;4366137;32;58738;-65
2023/09/19 10:57:01;;;;;;;1.87;1.67;;;;;;;;;;4387708;32;70048;-63
2023/09/19 11:03:18;;;;;;;2.78;1.90;;;;;;;;;;4395578;32;68787;-63
2023/09/19 11:06:10;;;;;;;4.53;1.90;;;;;;;;;;4387218;32;59187;-65
2023/09/19 11:09:21;;;;;;;2.47;1.90;;;;;;;;;;3847195;37;43858;-64
2023/09/19 11:12:11;;;;;;;3.28;2.28;;;;;;;;;;4379380;32;59100;-64
2023/09/19 11:14:58;;;;;;;;;;;;;;;;;;4398957;32;69827;-63
2023/09/19 11:17:46;;;;;;;2.15;1.70;;;;;;;;;;4410162;32;68740;-64
2023/09/19 11:20:41;;;;;;;2.53;1.75;;;;;;;;;;4399058;32;67780;-65
2023/09/19 11:23:30;;;;;;;2.35;1.77;;;;;;;;;;4387845;32;70724;-64
2023/09/19 11:26:43;;;;;;;2.62;1.30;;;;;;;;;;4412808;32;64642;-64
2023/09/19 11:29:31;;;;;;;3.50;2.00;;;;;;;;;;4379258;32;67954;-65
2023/09/19 11:32:19;;;;;;;4.55;2.40;;;;;;;;;;4388219;32;60994;-64
2023/09/19 11:35:10;;;;;;;3.95;2.05;;;;;;;;;;4376842;32;69495;-64
2023/09/19 11:37:56;;;;;;;5.03;2.22;;;;;;;;;;4398964;32;65899;-63
2023/09/19 11:40:54;;;;;;;2.47;1.80;;;;;;;;;;4398557;32;67513;-64
2023/09/19 11:43:41;;;;;;;3.72;1.90;;;;;;;;;;4389248;32;60429;-64
2023/09/19 11:46:32;;;;;;;2.53;1.77;;;;;;;;;;4384763;32;70793;-63
2023/09/19 11:49:30;;;;;;;3.15;1.80;;;;;;;;;;4394358;32;68738;-64
2023/09/19 11:52:39;;;;;;;6.53;1.90;;;;;;;;;;4395504;32;67900;-64
2023/09/19 11:55:30;;;;;;;3.33;1.80;;;;;;;;;;4373027;32;72779;-63
2023/09/19 11:58:18;;;;;;;1.77;1.60;;;;;;;;;;4384224;32;64762;-64
2023/09/19 12:01:12;;;;;;;4.07;2.00;;;;;;;;;;4383931;32;70215;-65
2023/09/19 12:04:01;;;;;;;4.03;2.15;;;;;;;;;;4393806;32;67314;-65
2023/09/19 12:06:58;;;;;;;1.65;1.55;;;;;;;;;;4393476;32;71742;-64
2023/09/19 12:09:49;;;;;;;3.90;2.10;;;;;;;;;;4393465;32;66171;-64
2023/09/19 12:12:36;;;;;;;3.72;2.10;;;;;;;;;;4393781;32;67065;-64
2023/09/19 12:15:34;;;;;;;2.80;1.50;;;;;;;;;;4371930;32;60916;-65
2023/09/19 12:18:28;;;;;;;2.95;1.80;;;;;;;;;;4381974;32;71976;-64
2023/09/19 12:21:31;;;;;;;3.22;1.80;;;;;;;;;;4372849;32;68346;-64
2023/09/19 12:24:19;;;;;;;5.75;1.98;;;;;;;;;;4372408;32;67214;-64
2023/09/19 12:27:07;;;;;;;4.50;1.98;;;;;;;;;;4372265;32;60611;-64
2023/09/19 12:29:55;;;;;;;1.95;1.50;;;;;;;;;;4361373;32;71209;-64
2023/09/19 12:32:42;;;;;;;4.25;1.58;;;;;;;;;;4362423;32;69251;-64
2023/09/19 12:35:34;;;;;;;4.20;2.15;;;;;;;;;;4382667;32;66573;-65
2023/09/19 12:38:28;;;;;;;2.30;1.55;;;;;;;;;;4372929;32;71631;-64
2023/09/19 12:41:14;;;;;;;2.08;1.60;;;;;;;;;;4383332;32;65988;-65
2023/09/19 12:44:02;;;;;;;;;;;;;;;;;;4383173;32;68967;-65
2023/09/19 12:46:49;;;;;;;2.20;1.75;;;;;;;;;;4373623;32;58558;-64
2023/09/19 12:49:36;;;;;;;3.03;1.80;;;;;;;;;;4383039;32;69439;-64
2023/09/19 12:52:25;;;;;;;;;;;;;;;;;;4361630;32;67277;-64
2023/09/19 12:55:22;;;;;;;3.90;1.85;;;;;;;;;;4371941;32;66567;-65
2023/09/19 12:58:16;;;;;;;2.60;1.90;;;;;;;;;;4372728;32;59303;-65
2023/09/19 13:01:05;;;;;;;2.25;1.80;;;;;;;;;;4361093;32;70680;-65
2023/09/19 13:04:25;;;;;;;3.00;1.92;;;;;;;;;;4361137;32;70321;-65
2023/09/19 13:07:49;;;;;;;1.90;1.65;;;;;;;;;;4371117;32;66248;-64
2023/09/19 13:10:57;;;;;;;3.80;2.00;;;;;;;;;;4361360;32;74653;-63
2023/09/19 13:13:49;;;;;;;3.37;1.95;;;;;;;;;;4361100;32;67326;-63
2023/09/19 13:16:53;;;;;;;4.47;2.12;;;;;;;;;;4372147;32;68597;-63
2023/09/19 13:19:49;;;;;;;2.53;1.62;;;;;;;;;;4382671;32;67945;-64
2023/09/19 13:22:43;;;;;;;4.32;1.98;;;;;;;;;;4371704;32;72845;-65
2023/09/19 13:25:31;;;;;;;1.70;1.42;;;;;;;;;;4371385;32;64320;-63
2023/09/19 13:28:18;;;;;;;1.58;1.12;;;;;;;;;;4360895;32;66899;-64
2023/09/19 13:31:04;;;;;;;2.00;1.58;;;;;;;;;;4360087;32;61802;-64
2023/09/19 13:33:54;;;;;;;2.15;1.60;;;;;;;;;;4371802;32;70429;-64
2023/09/19 13:36:44;;;;;;;2.72;1.55;;;;;;;;;;4371665;32;68383;-64
2023/09/19 13:39:31;;;;;;;3.37;1.73;;;;;;;;;;4371488;32;68860;-64
2023/09/19 13:42:18;;;;;;;3.42;1.87;;;;;;;;;;4382730;32;59108;-64
2023/09/19 13:45:05;;;;;;;;;;;;;;;;;;4383103;32;70795;-64
2023/09/19 13:47:51;;;;;;;3.05;1.83;;;;;;;;;;4371900;32;70599;-65
2023/09/19 13:50:45;;;;;;;2.53;1.70;;;;;;;;;;4382458;32;67927;-65
2023/09/19 13:53:31;;;;;;;3.35;2.05;;;;;;;;;;4383538;32;71846;-65
2023/09/19 13:56:18;;;;;;;5.45;2.28;;;;;;;;;;4371400;32;66676;-65
2023/09/19 13:59:06;;;;;;;4.72;2.58;;;;;;;;;;4371162;32;68786;-64
2023/09/19 14:01:53;;;;;;;3.72;2.10;;;;;;;;;;4382880;32;60519;-64
2023/09/19 14:04:40;;;;;;;4.40;2.10;;;;;;;;;;4371554;32;69543;-65
2023/09/19 14:07:27;;;;;;;3.22;2.20;;;;;;;;;;4370639;32;67244;-65
2023/09/19 14:13:00;;;;;;;3.35;2.12;;;;;;;;;;3847429;37;43639;-64
2023/09/19 14:15:46;;;;;;;4.37;2.37;;;;;;;;;;4398814;32;61244;-64
2023/09/19 14:18:33;;;;;;;;;;;;;;;;;;4399329;32;69315;-65
2023/09/19 14:21:20;;;;;;;6.15;3.40;;;;;;;;;;4387686;32;67779;-65
2023/09/19 14:24:09;;;;;;;6.72;3.85;;;;;;;;;;4377413;32;68300;-65
2023/09/19 14:26:56;;;;;;;8.07;3.87;;;;;;;;;;4388453;32;72096;-65
2023/09/19 14:29:43;;;;;;;9.63;5.00;;;;;;;;;;4388324;32;65971;-64
2023/09/19 14:32:30;;;;;;;10.00;5.22;;;;;;;;;;4388108;32;67714;-65
2023/09/19 14:35:17;;;;;;;;;;;;;;;;;;4409893;32;59108;-65
2023/09/19 14:38:04;;;;;;;8.38;4.60;;;;;;;;;;4387558;32;71426;-65
2023/09/19 14:40:59;;;;;;;;;;;;;;;;;;4388402;32;66549;-65
2023/09/19 14:43:47;;;;;;;8.95;4.00;;;;;;;;;;4398313;32;68449;-66
2023/09/19 14:46:35;;;;;;;9.90;3.97;;;;;;;;;;4388120;32;59554;-65
2023/09/19 14:49:22;;;;;;;9.93;3.55;;;;;;;;;;4387878;32;69425;-65
2023/09/19 14:52:09;;;;;;;;;;;;;;;;;;4398395;32;70445;-64
2023/09/19 14:54:56;;;;;;;5.20;2.77;;;;;;;;;;4400023;32;68290;-64
2023/09/19 14:57:46;;;;;;;4.97;2.60;;;;;;;;;;4399797;32;71883;-64
2023/09/19 15:00:34;;;;;;;5.18;2.85;;;;;;;;;;4409909;32;67810;-65
2023/09/19 15:03:21;;;;;;;4.00;2.65;;;;;;;;;;4398853;32;69327;-65
2023/09/19 15:06:09;;;;;;;3.92;2.60;;;;;;;;;;4387517;32;68810;-64
2023/09/19 15:09:04;;;;;;;4.47;2.85;;;;;;;;;;4409262;32;70530;-64
2023/09/19 15:11:43;;;;;;;5.37;3.00;;;;;;;;;;3868648;36;43193;-65
2023/09/19 15:14:31;;;;;;;4.97;2.87;;;;;;;;;;3868677;36;43878;-64
2023/09/19 15:17:19;;;;;;;7.57;4.32;;;;;;;;;;4404170;32;59568;-65
2023/09/19 15:20:06;;;;;;;12.45;6.37;;;;;;;;;;4400986;32;71356;-65
2023/09/19 15:22:54;;;;;;;15.00;8.80;;;;;;;;;;4414320;32;68493;-65
2023/09/19 15:25:41;;;;;;;;;;;;;;;;;;4390391;32;66034;-65
2023/09/19 15:28:28;;;;;;;15.63;9.63;;;;;;;;;;3868665;36;44121;-64
2023/09/19 15:31:14;;;;;;;17.12;11.25;;;;;;;;;;4403892;32;60534;-64
2023/09/19 15:34:01;;;;;;;13.95;9.43;;;;;;;;;;4392707;32;70481;-64
2023/09/19 15:36:47;;;;;;;;;;;;;;;;;;4403734;32;69472;-64
2023/09/19 15:39:34;;;;;;;12.55;7.85;;;;;;;;;;4390228;32;68001;-64
2023/09/19 15:42:20;;;;;;;8.35;4.87;;;;;;;;;;4390193;32;72038;-65
2023/09/19 15:45:09;;;;;;;9.13;4.18;;;;;;;;;;4400442;32;67296;-65
2023/09/19 15:47:56;;;;;;;8.35;3.97;;;;;;;;;;4390690;32;66225;-65
2023/09/19 15:50:44;;;;;;;;;;;;;;;;;;4399364;32;60310;-65
2023/09/19 15:53:48;;;;;;;9.60;3.90;;;;;;;;;;4376370;32;73281;-65
2023/09/19 15:56:38;;;;;;;7.65;3.47;;;;;;;;;;4398675;32;66130;-64
2023/09/19 15:59:27;;;;;;;5.82;3.10;;;;;;;;;;4398985;32;67576;-64
2023/09/19 16:02:13;;;;;;;11.57;3.90;;;;;;;;;;4410863;32;60408;-65
2023/09/19 16:05:06;;;;;;;5.70;3.12;;;;;;;;;;4398896;32;70419;-64
2023/09/19 16:07:53;;;;;;;8.75;3.83;;;;;;;;;;4377246;32;69545;-65
2023/09/19 16:10:40;;;;;;;9.85;4.57;;;;;;;;;;4387836;32;66799;-64
2023/09/19 16:13:28;;;;;;;9.50;4.43;;;;;;;;;;4398331;32;71579;-65
2023/09/19 16:16:17;;;;;;;10.27;4.80;;;;;;;;;;4398877;32;65843;-64
2023/09/19 16:19:07;;;;;;;6.90;3.70;;;;;;;;;;4387604;32;69248;-64
2023/09/19 16:21:55;;;;;;;8.30;4.45;;;;;;;;;;4385487;32;68431;-63
2023/09/19 16:24:42;;;;;;;7.18;4.35;;;;;;;;;;4395617;32;72482;-65
2023/09/19 16:27:29;;;;;;;;;;;;;;;;;;4398765;32;65710;-64
2023/09/19 16:30:18;;;;;;;9.27;4.97;;;;;;;;;;4396180;32;68476;-64
2023/09/19 16:33:05;;;;;;;12.93;5.85;;;;;;;;;;4398949;32;58906;-64
2023/09/19 16:35:52;;;;;;;14.80;6.03;;;;;;;;;;4385634;32;70547;-64
2023/09/19 16:38:40;;;;;;;11.90;5.43;;;;;;;;;;4390392;32;70677;-64
2023/09/19 16:41:27;;;;;;;8.80;5.03;;;;;;;;;;4367082;32;67899;-65
2023/09/19 16:44:13;;;;;;;;;;;;;;;;;;4376591;32;59058;-65
2023/09/19 16:47:02;;;;;;;11.52;4.45;;;;;;;;;;4377493;32;69011;-65
2023/09/19 16:49:49;;;;;;;11.98;4.93;;;;;;;;;;4374791;32;69551;-64
2023/09/19 16:52:36;;;;;;;7.45;4.90;;;;;;;;;;4387854;32;67616;-65
2023/09/19 16:55:22;;;;;;;9.38;4.93;;;;;;;;;;4364081;32;72155;-65
2023/09/19 16:58:09;;;;;;;8.13;4.87;;;;;;;;;;4385125;32;63973;-65
2023/09/19 17:00:57;;;;;;;9.98;4.62;;;;;;;;;;4388128;32;67415;-64
2023/09/19 17:03:43;;;;;;;10.98;5.97;;;;;;;;;;4377268;32;60177;-65
2023/09/19 17:06:30;;;;;;;10.73;5.53;;;;;;;;;;4376690;32;70827;-65
2023/09/19 17:09:18;;;;;;;8.30;4.70;;;;;;;;;;4376963;32;65896;-65
2023/09/19 17:12:06;;;;;;;11.10;5.72;;;;;;;;;;4387772;32;67544;-64
2023/09/19 17:14:55;;;;;;;10.18;6.30;;;;;;;;;;4399672;32;60074;-65
2023/09/19 17:17:42;;;;;;;9.40;5.40;;;;;;;;;;4363546;32;71582;-65
2023/09/19 17:23:30;;;;;;;12.98;6.18;;;;;;;;;;3847517;37;43481;-65
2023/09/19 17:26:17;;;;;;;12.10;6.00;;;;;;;;;;4411276;32;60368;-64
2023/09/19 17:29:04;;;;;;;11.20;6.18;;;;;;;;;;4409705;32;71080;-65